Time;durP1;ratioP1;P1;durP2;ratioP2;P2;SDS_P1;SDS_P2;PMS_P1;PMS_P2;Temp;Humidity;BMP_temperature;BMP_pressure;BME280_temperature;BME280_humidity;BME280_pressure;Samples;Min_cycle;Max_cycle;Signal;HPM_P1;HPM_P2
2021/08/18 00:01:21;;;;;;;15.18;7.10;;;;;;;24.14;60.33;97016.56;5077826;28;20035;-78
2021/08/18 00:03:47;;;;;;;10.88;7.00;;;;;;;24.12;60.78;97024.09;5077992;28;20496;-78
2021/08/18 00:06:13;;;;;;;11.50;6.70;;;;;;;24.05;64.22;97015.81;5075127;28;20104;-78
2021/08/18 00:08:41;;;;;;;9.55;6.47;;;;;;;23.99;62.37;97008.38;5063209;28;20020;-77
2021/08/18 00:11:07;;;;;;;15.70;7.55;;;;;;;23.89;64.69;97001.50;5081183;28;20028;-78
2021/08/18 00:13:32;;;;;;;9.95;7.43;;;;;;;23.84;64.76;97004.78;5077651;28;20097;-78
2021/08/18 00:15:58;;;;;;;23.38;7.00;;;;;;;23.80;65.63;97000.75;5080085;28;20475;-78
2021/08/18 00:18:23;;;;;;;12.48;7.20;;;;;;;23.77;66.51;97005.75;5076287;28;20028;-78
2021/08/18 00:20:49;;;;;;;20.98;7.13;;;;;;;23.70;65.63;97014.72;5074147;28;20472;-78
2021/08/18 00:23:15;;;;;;;15.55;6.22;;;;;;;23.65;65.85;97025.38;5080716;28;20035;-78
2021/08/18 00:25:41;;;;;;;17.13;6.90;;;;;;;23.57;65.16;97009.06;5092220;28;20028;-77
2021/08/18 00:28:06;;;;;;;10.15;6.63;;;;;;;23.56;67.25;97017.47;5086171;28;20035;-78
2021/08/18 00:30:32;;;;;;;15.38;6.75;;;;;;;23.53;66.72;97021.38;5081084;28;20020;-77
2021/08/18 00:32:58;;;;;;;10.38;6.22;;;;;;;23.47;67.15;97015.88;5061723;28;20055;-77
2021/08/18 00:35:23;;;;;;;13.68;6.03;;;;;;;23.39;68.66;97024.09;5078538;28;20031;-77
2021/08/18 00:37:49;;;;;;;13.45;5.20;;;;;;;23.30;68.67;97017.03;5084510;28;20034;-77
2021/08/18 00:40:15;;;;;;;15.13;6.07;;;;;;;23.22;68.82;97016.06;5075144;28;20099;-77
2021/08/18 00:42:42;;;;;;;21.08;5.15;;;;;;;23.17;68.47;97018.53;5078127;28;20036;-77
2021/08/18 00:45:09;;;;;;;14.25;5.15;;;;;;;23.14;69.31;97027.09;5097654;28;20020;-77
2021/08/18 00:47:43;;;;;;;16.55;5.60;;;;;;;23.05;70.50;97030.94;5085172;28;20029;-78
2021/08/18 00:50:10;;;;;;;22.80;5.88;;;;;;;22.98;70.11;97027.22;5086009;28;20069;-78
2021/08/18 00:52:36;;;;;;;17.40;5.70;;;;;;;22.97;69.59;97033.75;5080356;28;20027;-78
2021/08/18 00:55:02;;;;;;;9.48;5.90;;;;;;;22.91;69.44;97017.25;5080103;28;20108;-78
2021/08/18 00:57:27;;;;;;;15.43;6.68;;;;;;;22.84;69.14;97022.59;5084417;28;20537;-77
2021/08/18 00:59:54;;;;;;;13.63;5.78;;;;;;;22.79;69.01;97022.31;5060501;28;20031;-77
2021/08/18 01:02:20;;;;;;;11.23;5.95;;;;;;;22.76;69.41;97027.28;5081604;28;20024;-77
2021/08/18 01:04:46;;;;;;;8.90;5.57;;;;;;;22.64;69.13;97021.41;5080632;28;20032;-77
2021/08/18 01:07:12;;;;;;;15.40;6.30;;;;;;;22.61;69.28;97022.59;5080891;28;20030;-77
2021/08/18 01:09:38;;;;;;;10.95;5.82;;;;;;;22.64;69.58;97026.84;5091536;28;20047;-77
2021/08/18 01:12:04;;;;;;;7.78;5.70;;;;;;;22.62;68.77;97020.72;5087317;28;20059;-77
2021/08/18 01:14:30;;;;;;;9.82;5.55;;;;;;;22.62;69.04;97017.97;5084142;28;20024;-77
2021/08/18 01:16:58;;;;;;;8.65;5.50;;;;;;;22.63;68.60;97014.22;5084366;28;20384;-81
2021/08/18 01:19:24;;;;;;;14.30;6.03;;;;;;;22.63;69.74;97030.59;5084271;28;20028;-78
2021/08/18 01:21:49;;;;;;;7.68;5.65;;;;;;;22.61;70.95;97032.66;5082633;28;20020;-77
2021/08/18 01:24:21;;;;;;;10.60;6.55;;;;;;;22.61;72.16;97030.75;5082073;28;20185;-78
2021/08/18 01:26:47;;;;;;;12.27;5.93;;;;;;;22.55;72.60;97036.09;5098522;28;20047;-78
2021/08/18 01:29:12;;;;;;;11.75;6.20;;;;;;;22.55;73.82;97045.13;5084393;28;20016;-78
2021/08/18 01:31:41;;;;;;;14.05;6.43;;;;;;;22.56;74.39;97051.44;5082786;28;20033;-78
2021/08/18 01:34:06;;;;;;;17.40;6.05;;;;;;;22.57;74.38;97055.88;5102105;28;20059;-77
2021/08/18 01:36:33;;;;;;;18.05;5.88;;;;;;;22.64;74.30;97065.84;5064942;28;20032;-77
2021/08/18 01:39:07;;;;;;;15.98;5.78;;;;;;;22.70;73.88;97061.59;5085511;28;20483;-78
2021/08/18 01:41:33;;;;;;;12.70;5.70;;;;;;;22.59;74.18;97056.53;5084083;28;20032;-77
2021/08/18 01:43:59;;;;;;;14.13;6.43;;;;;;;22.63;73.14;97066.91;5083834;28;20028;-78
2021/08/18 01:46:24;;;;;;;16.83;6.53;;;;;;;22.62;72.40;97064.34;5084542;28;20066;-78
2021/08/18 01:48:50;;;;;;;17.02;7.60;;;;;;;22.62;72.40;97067.06;5082180;28;20392;-78
2021/08/18 01:51:16;;;;;;;13.65;7.10;;;;;;;22.67;72.87;97070.97;5079127;28;20039;-78
2021/08/18 01:53:44;;;;;;;15.20;6.85;;;;;;;22.57;72.63;97073.06;5081929;28;20023;-78
2021/08/18 01:56:12;;;;;;;10.73;6.45;;;;;;;22.51;72.95;97070.22;5085920;28;20081;-78
2021/08/18 01:58:38;;;;;;;9.80;6.60;;;;;;;22.43;72.98;97075.72;5083277;28;20475;-77
2021/08/18 02:01:07;;;;;;;12.70;6.35;;;;;;;22.33;73.35;97066.94;5074956;28;20027;-77
2021/08/18 02:03:32;;;;;;;11.88;6.35;;;;;;;22.31;73.65;97068.97;5084863;28;20024;-77
2021/08/18 02:05:58;;;;;;;9.68;6.10;;;;;;;22.34;74.19;97074.06;5081638;28;20505;-78
2021/08/18 02:08:24;;;;;;;9.95;6.22;;;;;;;22.25;74.63;97064.25;5079606;28;20054;-76
2021/08/18 02:10:49;;;;;;;11.10;6.05;;;;;;;22.14;75.37;97068.22;5077902;28;20029;-77
2021/08/18 02:13:15;;;;;;;11.07;6.35;;;;;;;22.13;75.07;97066.53;5084853;28;20407;-77
2021/08/18 02:15:41;;;;;;;17.42;6.55;;;;;;;22.18;73.19;97071.47;5080955;28;20030;-78
2021/08/18 02:18:07;;;;;;;12.40;6.55;;;;;;;22.20;73.19;97072.13;5065634;28;20028;-78
2021/08/18 02:20:35;;;;;;;14.18;7.03;;;;;;;22.28;75.15;97074.78;5079302;28;20016;-77
2021/08/18 02:23:01;;;;;;;13.88;6.70;;;;;;;22.31;75.13;97069.81;5100389;28;20031;-77
2021/08/18 02:25:27;;;;;;;13.05;6.70;;;;;;;22.30;75.59;97078.19;5080289;28;20028;-77
2021/08/18 02:27:53;;;;;;;11.18;7.05;;;;;;;22.35;76.17;97078.50;5085139;28;20490;-78
2021/08/18 02:30:22;;;;;;;14.13;6.53;;;;;;;22.32;73.97;97079.72;5069044;28;20502;-78
2021/08/18 02:32:48;;;;;;;16.15;7.32;;;;;;;22.33;75.49;97083.28;5060581;28;20115;-78
2021/08/18 02:35:14;;;;;;;10.18;6.93;;;;;;;22.34;76.31;97079.50;5081029;28;20174;-78
2021/08/18 02:37:41;;;;;;;11.32;6.57;;;;;;;22.37;75.59;97090.06;5082725;28;20025;-77
2021/08/18 02:40:08;;;;;;;12.35;6.47;;;;;;;22.39;74.94;97094.31;5066132;28;20024;-77
2021/08/18 02:42:34;;;;;;;11.07;6.53;;;;;;;22.43;74.33;97089.34;5065034;28;20038;-77
2021/08/18 02:45:00;;;;;;;17.08;6.70;;;;;;;22.43;77.34;97092.06;5084426;28;20028;-78
2021/08/18 02:47:25;;;;;;;11.43;6.55;;;;;;;22.40;76.53;97090.56;5081789;28;20036;-77
2021/08/18 02:49:52;;;;;;;15.68;7.15;;;;;;;22.37;75.80;97095.50;5078465;28;20536;-78
2021/08/18 02:52:17;;;;;;;14.82;7.10;;;;;;;22.35;76.90;97092.97;5080895;28;20032;-78
2021/08/18 02:54:43;;;;;;;17.38;7.25;;;;;;;22.35;76.48;97086.69;5073996;28;20537;-78
2021/08/18 02:57:08;;;;;;;15.20;7.22;;;;;;;22.39;77.11;97102.50;5086249;28;20470;-78
2021/08/18 02:59:34;;;;;;;22.05;7.85;;;;;;;22.37;76.87;97084.59;5076879;28;20032;-77
2021/08/18 03:01:59;;;;;;;21.25;8.50;;;;;;;22.28;78.68;97091.13;5081459;28;20507;-78
2021/08/18 03:04:25;;;;;;;21.00;8.38;;;;;;;22.18;77.41;97082.34;5075394;28;20046;-77
2021/08/18 03:06:52;;;;;;;27.05;9.13;;;;;;;22.12;79.23;97105.69;5079926;28;20111;-78
2021/08/18 03:09:18;;;;;;;19.65;8.82;;;;;;;22.08;78.60;97105.22;5079949;28;20073;-77
2021/08/18 03:11:44;;;;;;;14.10;7.13;;;;;;;22.09;78.05;97103.31;5072628;28;20028;-77
2021/08/18 03:14:09;;;;;;;17.58;8.07;;;;;;;22.01;77.63;97100.66;5083065;28;20039;-77
2021/08/18 03:16:35;;;;;;;12.65;7.95;;;;;;;22.07;77.56;97106.22;5067149;28;20187;-77
2021/08/18 03:19:00;;;;;;;31.83;7.57;;;;;;;22.06;77.65;97109.97;5101114;28;20028;-77
2021/08/18 03:21:26;;;;;;;11.32;6.95;;;;;;;22.05;77.35;97108.31;5079809;28;20089;-77
2021/08/18 03:23:51;;;;;;;11.60;6.72;;;;;;;21.93;78.12;97106.97;5095793;28;20059;-77
2021/08/18 03:26:17;;;;;;;19.25;7.22;;;;;;;21.85;78.47;97111.56;5078839;28;20422;-77
2021/08/18 03:28:42;;;;;;;17.38;6.75;;;;;;;21.84;79.20;97110.72;5077440;28;20036;-77
2021/08/18 03:31:08;;;;;;;20.73;8.60;;;;;;;21.80;81.01;97114.81;5082142;28;20564;-77
2021/08/18 03:33:33;;;;;;;27.13;7.75;;;;;;;21.71;81.61;97120.47;5064918;28;20446;-76
2021/08/18 03:35:59;;;;;;;22.27;7.57;;;;;;;21.66;80.99;97122.88;5085657;28;20028;-77
2021/08/18 03:38:25;;;;;;;13.98;7.50;;;;;;;21.61;80.36;97132.41;5095990;28;20408;-79
2021/08/18 03:40:52;;;;;;;20.42;8.82;;;;;;;21.57;82.80;97132.91;5100420;28;20024;-77
2021/08/18 03:43:21;;;;;;;22.23;9.77;;;;;;;21.55;82.83;97132.25;5062675;28;20480;-78
2021/08/18 03:45:47;;;;;;;22.52;8.15;;;;;;;21.52;83.62;97141.63;5060528;28;20028;-77
2021/08/18 03:48:13;;;;;;;27.40;8.65;;;;;;;21.54;84.80;97152.31;5065317;28;20400;-78
2021/08/18 03:50:38;;;;;;;18.85;8.02;;;;;;;21.53;85.32;97150.63;5077362;28;20078;-76
2021/08/18 03:53:04;;;;;;;25.15;8.18;;;;;;;21.42;85.35;97149.09;5098754;28;20550;-78
2021/08/18 03:55:29;;;;;;;17.30;8.30;;;;;;;21.45;85.68;97156.06;5080348;28;20472;-77
2021/08/18 03:57:55;;;;;;;15.23;7.50;;;;;;;21.51;82.70;97152.66;5061937;28;20024;-77
2021/08/18 04:00:21;;;;;;;25.77;7.85;;;;;;;21.50;82.62;97146.34;5083919;28;20055;-76
2021/08/18 04:02:47;;;;;;;14.93;6.72;;;;;;;21.51;82.24;97152.66;5060917;28;20508;-77
2021/08/18 04:05:13;;;;;;;12.77;8.43;;;;;;;21.52;82.34;97151.66;5078428;28;20035;-77
2021/08/18 04:07:38;;;;;;;14.48;7.20;;;;;;;21.56;83.03;97156.56;5077686;28;20483;-77
2021/08/18 04:10:05;;;;;;;12.93;7.38;;;;;;;21.58;80.41;97151.81;5084002;28;20008;-78
2021/08/18 04:12:31;;;;;;;14.80;7.90;;;;;;;21.59;79.96;97150.75;5061991;28;20059;-78
2021/08/18 04:14:56;;;;;;;18.10;8.20;;;;;;;21.62;80.54;97157.75;5080684;28;20044;-78
2021/08/18 04:17:22;;;;;;;21.17;8.20;;;;;;;21.66;81.81;97163.72;5078721;28;20035;-78
2021/08/18 04:19:49;;;;;;;11.48;6.60;;;;;;;21.70;81.19;97160.47;5054807;28;20029;-77
2021/08/18 04:22:15;;;;;;;15.77;8.95;;;;;;;21.79;79.97;97161.28;5079834;28;20024;-77
2021/08/18 04:24:40;;;;;;;15.80;7.78;;;;;;;21.79;80.71;97166.72;5076398;28;20051;-77
2021/08/18 04:27:06;;;;;;;21.08;7.95;;;;;;;21.85;79.11;97156.00;5083314;28;20484;-78
2021/08/18 04:29:32;;;;;;;20.73;8.10;;;;;;;21.95;79.85;97164.84;5079654;28;20023;-79
2021/08/18 04:31:59;;;;;;;22.55;7.55;;;;;;;22.07;79.72;97170.78;5075693;28;20027;-79
2021/08/18 04:34:25;;;;;;;28.80;8.98;;;;;;;22.02;80.40;97171.31;5078966;28;20035;-78
2021/08/18 04:36:50;;;;;;;22.40;10.02;;;;;;;22.11;80.94;97178.44;5077239;28;20100;-76
2021/08/18 04:39:16;;;;;;;20.83;8.98;;;;;;;21.97;80.72;97181.88;5081006;28;20483;-78
2021/08/18 04:41:41;;;;;;;28.48;10.68;;;;;;;22.05;81.02;97181.84;5079502;28;20124;-78
2021/08/18 04:44:07;;;;;;;20.95;8.57;;;;;;;22.05;79.62;97184.59;5076995;28;20377;-77
2021/08/18 04:46:32;;;;;;;20.33;8.32;;;;;;;22.11;78.66;97183.88;5079282;28;20025;-77
2021/08/18 04:48:58;;;;;;;20.65;7.80;;;;;;;22.30;76.87;97192.66;5079393;28;20020;-77
2021/08/18 04:51:23;;;;;;;15.32;8.05;;;;;;;22.23;76.97;97186.22;5089766;28;20040;-77
2021/08/18 04:53:49;;;;;;;14.13;7.60;;;;;;;22.20;77.46;97192.00;5090897;28;20032;-79
2021/08/18 04:56:15;;;;;;;18.48;9.02;;;;;;;22.11;78.22;97188.47;5086675;28;20436;-78
2021/08/18 04:58:40;;;;;;;16.17;9.88;;;;;;;22.06;78.34;97191.72;5070636;28;20071;-78
2021/08/18 05:01:06;;;;;;;17.42;8.02;;;;;;;21.98;78.13;97189.03;5087608;28;20040;-78
2021/08/18 05:03:31;;;;;;;24.77;8.65;;;;;;;21.96;78.71;97195.66;5072622;28;20459;-78
2021/08/18 05:05:57;;;;;;;21.80;9.20;;;;;;;22.05;79.10;97197.34;5089413;28;20552;-77
2021/08/18 05:08:22;;;;;;;21.67;8.35;;;;;;;22.10;78.89;97197.66;5102631;28;20093;-78
2021/08/18 05:10:48;;;;;;;15.13;7.70;;;;;;;22.13;78.23;97198.16;5070684;28;20036;-78
2021/08/18 05:13:14;;;;;;;18.73;7.78;;;;;;;22.13;78.22;97198.16;5086037;28;20040;-77
2021/08/18 05:15:40;;;;;;;88.47;11.60;;;;;;;22.26;77.04;97199.47;5052460;28;20067;-77
2021/08/18 05:18:06;;;;;;;17.23;7.53;;;;;;;22.34;76.08;97196.72;5087049;28;20140;-78
2021/08/18 05:20:32;;;;;;;18.95;8.80;;;;;;;22.45;75.96;97207.25;5089326;28;20063;-78
2021/08/18 05:22:58;;;;;;;38.10;10.85;;;;;;;22.60;75.98;97200.00;5089312;28;20035;-76
2021/08/18 05:25:23;;;;;;;21.52;9.38;;;;;;;22.79;73.94;97205.06;5089337;28;20028;-77
2021/08/18 05:27:49;;;;;;;32.55;8.48;;;;;;;22.92;72.51;97208.03;5089464;28;20111;-77
2021/08/18 05:30:15;;;;;;;13.43;7.93;;;;;;;23.07;70.92;97208.94;5090501;28;20035;-79
2021/08/18 05:32:41;;;;;;;14.43;7.57;;;;;;;22.65;71.74;97214.00;5072675;28;20036;-78
2021/08/18 05:35:09;;;;;;;14.77;7.10;;;;;;;23.28;69.72;97215.66;5072548;28;20479;-78
2021/08/18 05:37:35;;;;;;;21.98;7.85;;;;;;;25.29;62.54;97224.31;5072614;28;20029;-79
2021/08/18 05:40:00;;;;;;;18.55;9.43;;;;;;;26.63;56.55;97226.06;5072558;28;20039;-79
2021/08/18 05:42:26;;;;;;;19.75;8.60;;;;;;;28.20;51.92;97229.25;5072601;28;20028;-79
2021/08/18 05:44:51;;;;;;;17.33;6.63;;;;;;;28.90;49.20;97225.69;5073748;28;20021;-80
2021/08/18 05:47:17;;;;;;;16.70;6.82;;;;;;;29.94;45.99;97230.84;5089044;28;20028;-78
2021/08/18 05:49:42;;;;;;;15.70;7.32;;;;;;;29.66;45.96;97222.97;5072391;28;20073;-80
2021/08/18 05:52:08;;;;;;;20.50;7.20;;;;;;;29.84;45.33;97227.78;5088860;28;20024;-78
2021/08/18 05:54:34;;;;;;;31.13;7.63;;;;;;;31.03;43.68;97228.31;5072484;28;20028;-80
2021/08/18 05:57:00;;;;;;;22.25;7.00;;;;;;;31.79;41.71;97222.16;5072475;28;20024;-79
2021/08/18 05:59:25;;;;;;;15.10;6.88;;;;;;;32.31;40.26;97228.78;5088742;28;20447;-79
2021/08/18 06:01:51;;;;;;;20.25;7.30;;;;;;;33.22;38.59;97227.03;5055533;28;20051;-79
2021/08/18 06:04:16;;;;;;;11.73;7.07;;;;;;;33.52;37.22;97214.88;5072298;28;20020;-78
2021/08/18 06:06:42;;;;;;;25.45;6.80;;;;;;;32.87;38.20;97228.16;5072405;28;20020;-79
2021/08/18 06:09:08;;;;;;;26.50;6.38;;;;;;;32.99;38.46;97232.63;5073168;28;20028;-79
2021/08/18 06:11:33;;;;;;;20.90;7.15;;;;;;;33.96;36.82;97227.09;5055238;28;20120;-78
2021/08/18 06:13:59;;;;;;;17.20;6.47;;;;;;;33.54;36.49;97226.53;5079606;28;20051;-78
2021/08/18 06:16:25;;;;;;;15.70;6.90;;;;;;;34.09;36.09;97229.53;5100483;28;20035;-78
2021/08/18 06:18:51;;;;;;;14.52;6.75;;;;;;;35.45;34.18;97230.75;5108807;28;20090;-78
2021/08/18 06:21:18;;;;;;;16.10;6.35;;;;;;;35.95;33.36;97234.13;5109170;28;20488;-78
2021/08/18 06:23:45;;;;;;;18.98;7.75;;;;;;;35.95;32.48;97224.94;5109105;28;20044;-79
2021/08/18 06:26:11;;;;;;;23.05;6.80;;;;;;;35.69;32.69;97216.31;5108469;28;20020;-78
2021/08/18 06:28:36;;;;;;;21.50;6.65;;;;;;;37.05;30.24;97210.22;5054945;28;20032;-79
2021/08/18 06:31:02;;;;;;;14.85;7.05;;;;;;;37.35;29.73;97213.97;5072835;28;20480;-78
2021/08/18 06:33:27;;;;;;;18.80;6.60;;;;;;;37.50;29.20;97210.44;5071486;28;20150;-78
2021/08/18 06:35:53;;;;;;;18.73;6.95;;;;;;;36.91;30.39;97205.13;5071779;28;20025;-78
2021/08/18 06:38:18;;;;;;;21.65;6.93;;;;;;;36.71;30.41;97207.78;5079998;28;20024;-80
2021/08/18 06:40:44;;;;;;;21.13;7.22;;;;;;;37.41;29.42;97201.72;5088104;28;20027;-79
2021/08/18 06:43:09;;;;;;;15.07;6.13;;;;;;;37.44;29.05;97203.09;5080909;28;20024;-79
2021/08/18 06:45:37;;;;;;;14.20;6.50;;;;;;;38.08;28.16;97199.97;5108417;28;20027;-78
2021/08/18 06:48:03;;;;;;;12.85;6.63;;;;;;;38.25;27.94;97192.13;5091689;28;20031;-79
2021/08/18 06:50:28;;;;;;;11.02;6.57;;;;;;;38.43;26.77;97186.00;5072134;28;20407;-79
2021/08/18 06:52:54;;;;;;;20.92;6.60;;;;;;;38.22;26.78;97189.88;5072621;28;20024;-78
2021/08/18 06:55:19;;;;;;;10.15;6.47;;;;;;;37.64;27.24;97185.63;5071173;28;20385;-78
2021/08/18 06:57:46;;;;;;;9.30;6.55;;;;;;;37.88;27.22;97183.97;5071234;28;20035;-78
2021/08/18 07:00:12;;;;;;;11.32;6.20;;;;;;;38.16;26.71;97185.41;5087698;28;20110;-79
2021/08/18 07:02:51;;;;;;;18.45;7.47;;;;;;;36.43;28.73;97177.44;5074091;28;20535;-79
2021/08/18 07:05:18;;;;;;;20.63;7.78;;;;;;;36.77;28.31;97178.81;5083647;28;20039;-79
2021/08/18 07:07:44;;;;;;;14.75;6.55;;;;;;;37.94;26.44;97175.34;5075267;28;20480;-79
2021/08/18 07:10:12;;;;;;;12.02;6.38;;;;;;;38.54;25.61;97162.50;5091250;28;20031;-78
2021/08/18 07:12:37;;;;;;;16.95;6.53;;;;;;;38.38;25.39;97174.81;5090806;28;20024;-79
2021/08/18 07:15:06;;;;;;;12.15;7.55;;;;;;;38.87;25.52;97187.06;5074081;28;20471;-79
2021/08/18 07:17:32;;;;;;;10.80;6.70;;;;;;;38.80;25.15;97180.91;5090695;28;20114;-79
2021/08/18 07:19:58;;;;;;;42.67;8.65;;;;;;;38.34;25.76;97171.72;5085062;28;20016;-79
2021/08/18 07:22:24;;;;;;;15.82;7.15;;;;;;;37.56;26.41;97184.22;5070551;28;20035;-78
2021/08/18 07:24:49;;;;;;;14.27;7.20;;;;;;;38.34;26.07;97184.84;5070514;28;20040;-79
2021/08/18 07:27:15;;;;;;;13.45;7.57;;;;;;;38.35;25.73;97180.97;5087206;28;20032;-79
2021/08/18 07:29:41;;;;;;;10.13;6.95;;;;;;;38.78;24.89;97177.56;5070369;28;20114;-79
2021/08/18 07:32:06;;;;;;;12.25;6.50;;;;;;;37.57;26.18;97183.09;5070695;28;20483;-79
2021/08/18 07:34:33;;;;;;;20.17;7.03;;;;;;;37.69;26.73;97185.63;5071464;28;20123;-79
2021/08/18 07:37:00;;;;;;;23.90;7.68;;;;;;;37.40;27.24;97176.88;5070510;28;20050;-79
2021/08/18 07:39:25;;;;;;;21.67;6.60;;;;;;;36.65;27.87;97180.97;5053505;28;20120;-79
2021/08/18 07:41:51;;;;;;;17.13;6.97;;;;;;;36.16;28.49;97177.53;5066575;28;20114;-79
2021/08/18 07:44:16;;;;;;;23.80;7.93;;;;;;;35.67;29.31;97179.56;5082748;28;20461;-75
2021/08/18 07:46:46;;;;;;;10.82;6.30;;;;;;;35.14;29.83;97179.47;5086722;28;20400;-76
2021/08/18 07:49:12;;;;;;;12.85;6.93;;;;;;;36.07;29.17;97173.56;5070366;28;20382;-76
2021/08/18 07:51:40;;;;;;;13.43;6.55;;;;;;;37.35;27.73;97177.69;5078230;28;20028;-76
2021/08/18 07:54:06;;;;;;;15.50;6.65;;;;;;;36.19;28.76;97170.56;5070347;28;20131;-75
2021/08/18 07:56:32;;;;;;;14.45;6.05;;;;;;;36.72;28.13;97175.16;5061656;28;20111;-75
2021/08/18 07:59:01;;;;;;;22.75;6.28;;;;;;;37.42;27.00;97177.44;5078797;28;20032;-75
2021/08/18 08:01:30;;;;;;;10.07;6.00;;;;;;;36.71;26.97;97174.31;5079205;28;20029;-75
2021/08/18 08:03:55;;;;;;;10.48;6.35;;;;;;;38.74;25.71;97175.59;5094673;28;20078;-75
2021/08/18 08:06:21;;;;;;;24.85;6.70;;;;;;;37.90;25.62;97168.63;5078439;28;20019;-76
2021/08/18 08:08:46;;;;;;;10.70;6.00;;;;;;;38.12;25.80;97167.56;5081688;28;20024;-75
2021/08/18 08:11:12;;;;;;;24.42;6.88;;;;;;;39.29;23.72;97161.44;5076622;28;20030;-75
2021/08/18 08:13:37;;;;;;;15.48;6.50;;;;;;;40.57;22.73;97157.50;5081416;28;20119;-78
2021/08/18 08:16:03;;;;;;;13.48;5.50;;;;;;;39.38;24.12;97148.53;5083208;28;20393;-75
2021/08/18 08:18:29;;;;;;;11.90;6.10;;;;;;;39.59;24.10;97156.81;5074130;28;20115;-75
2021/08/18 08:20:54;;;;;;;13.93;5.28;;;;;;;40.77;22.74;97154.47;5082565;28;20078;-75
2021/08/18 08:23:20;;;;;;;10.90;6.97;;;;;;;37.59;25.51;97147.38;5082156;28;20546;-74
2021/08/18 08:25:45;;;;;;;13.15;6.97;;;;;;;39.50;23.81;97162.19;5064029;28;20101;-75
2021/08/18 08:28:11;;;;;;;10.65;5.65;;;;;;;40.09;22.64;97148.06;5082978;28;20528;-75
2021/08/18 08:30:38;;;;;;;14.70;5.78;;;;;;;40.46;22.91;97145.50;5089935;28;20487;-76
2021/08/18 08:33:03;;;;;;;9.73;5.75;;;;;;;39.18;23.76;97150.56;5089870;28;20085;-76
2021/08/18 08:35:29;;;;;;;11.75;5.90;;;;;;;39.17;23.92;97154.47;5064309;28;20404;-76
2021/08/18 08:37:55;;;;;;;13.82;5.75;;;;;;;39.99;23.08;97139.75;5078163;28;20028;-76
2021/08/18 08:40:21;;;;;;;9.45;5.60;;;;;;;39.22;23.62;97144.13;5085254;28;20036;-75
2021/08/18 08:42:47;;;;;;;11.63;5.63;;;;;;;40.37;22.89;97140.81;5064440;28;20078;-75
2021/08/18 08:45:13;;;;;;;18.25;6.00;;;;;;;39.10;23.98;97142.78;5064661;28;20108;-75
2021/08/18 08:47:41;;;;;;;10.25;5.40;;;;;;;39.85;23.28;97131.16;5082336;28;20024;-76
2021/08/18 08:50:10;;;;;;;5.43;4.82;;;;;;;38.09;24.48;97118.63;5072980;28;20411;-75
2021/08/18 08:52:36;;;;;;;15.88;5.82;;;;;;;38.60;24.86;97129.75;5089342;28;20031;-77
2021/08/18 08:55:04;;;;;;;13.05;5.93;;;;;;;40.56;21.84;97119.34;5072672;28;20035;-75
2021/08/18 08:57:30;;;;;;;14.00;5.80;;;;;;;40.37;22.16;97122.03;5089907;28;20093;-75
2021/08/18 08:59:55;;;;;;;11.90;5.78;;;;;;;40.00;23.22;97116.16;5089442;28;20409;-75
2021/08/18 09:02:21;;;;;;;10.88;5.72;;;;;;;39.86;22.88;97117.97;5074394;28;20450;-76
2021/08/18 09:04:48;;;;;;;9.73;5.70;;;;;;;37.64;24.99;97115.78;5091207;28;20055;-75
2021/08/18 09:07:18;;;;;;;7.78;5.32;;;;;;;38.87;23.68;97119.91;5079525;28;20020;-75
2021/08/18 09:09:58;;;;;;;11.13;5.70;;;;;;;37.21;25.71;97105.91;5074557;28;20107;-76
2021/08/18 09:12:41;;;;;;;8.25;5.22;;;;;;;38.81;23.13;97106.22;5090033;28;20054;-76
2021/08/18 09:15:17;;;;;;;8.52;5.10;;;;;;;39.20;23.67;97100.72;5086655;28;20407;-74
2021/08/18 09:17:43;;;;;;;12.57;5.80;;;;;;;39.99;22.88;97098.50;5083777;28;20528;-75
2021/08/18 09:20:23;;;;;;;9.75;5.53;;;;;;;40.32;22.34;97096.00;5081654;28;20017;-75
2021/08/18 09:22:53;;;;;;;10.35;5.97;;;;;;;40.54;22.53;97090.75;5073007;28;20107;-75
2021/08/18 09:25:23;;;;;;;16.93;6.00;;;;;;;41.07;22.11;97097.16;5072871;28;20036;-76
2021/08/18 09:27:56;;;;;;;12.90;5.45;;;;;;;40.69;22.33;97078.50;5073914;28;20028;-76
2021/08/18 09:30:25;;;;;;;13.32;5.47;;;;;;;38.99;23.96;97083.19;5074227;28;20012;-75
2021/08/18 09:32:52;;;;;;;16.27;6.05;;;;;;;39.48;23.37;97081.25;5072365;28;20035;-75
2021/08/18 09:35:19;;;;;;;9.15;5.65;;;;;;;39.46;23.33;97077.06;5087038;28;20511;-76
2021/08/18 09:37:55;;;;;;;8.10;6.15;;;;;;;38.67;23.88;97074.38;5083502;28;20024;-77
2021/08/18 09:40:33;;;;;;;11.43;5.78;;;;;;;40.45;21.95;97078.47;5087152;28;20052;-75
2021/08/18 09:43:17;;;;;;;10.95;5.68;;;;;;;41.84;20.45;97073.25;5092880;28;20439;-75
2021/08/18 09:45:44;;;;;;;19.27;6.22;;;;;;;40.15;22.21;97057.19;5066672;28;20086;-75
2021/08/18 09:48:16;;;;;;;10.32;5.65;;;;;;;40.72;21.83;97061.91;5081117;28;20020;-76
2021/08/18 09:50:49;;;;;;;16.40;6.13;;;;;;;39.15;23.49;97053.16;5073005;28;20024;-75
2021/08/18 09:53:19;;;;;;;15.98;6.38;;;;;;;39.61;22.75;97056.50;5092792;28;20032;-75
2021/08/18 09:55:51;;;;;;;11.27;5.43;;;;;;;38.65;24.37;97059.81;5058593;28;20093;-75
2021/08/18 09:58:19;;;;;;;10.60;6.35;;;;;;;40.99;21.88;97056.53;5060760;28;20032;-75
2021/08/18 10:00:45;;;;;;;11.30;6.15;;;;;;;40.64;21.42;97058.94;5074809;28;20029;-76
2021/08/18 10:03:12;;;;;;;9.90;5.50;;;;;;;40.34;22.08;97049.69;5080625;28;20024;-75
2021/08/18 10:05:38;;;;;;;480.65;29.95;;;;;;;37.27;25.64;97049.84;5080038;28;20024;-75
2021/08/18 10:08:03;;;;;;;17.58;5.90;;;;;;;36.39;26.83;97050.88;5092366;28;20103;-74
2021/08/18 10:10:29;;;;;;;9.10;5.85;;;;;;;36.34;26.47;97053.63;5092091;28;20130;-75
2021/08/18 10:12:55;;;;;;;37.53;7.43;;;;;;;36.12;27.43;97052.94;5058629;28;20038;-74
2021/08/18 10:15:20;;;;;;;45.63;6.78;;;;;;;35.11;28.64;97063.16;5079296;28;20024;-74
2021/08/18 10:17:47;;;;;;;9.05;5.95;;;;;;;35.96;27.22;97059.50;5063241;28;20032;-75
2021/08/18 10:20:14;;;;;;;44.70;7.03;;;;;;;37.78;24.78;97045.13;5080120;28;20182;-75
2021/08/18 10:22:40;;;;;;;38.10;9.27;;;;;;;39.88;23.44;97049.28;5072186;28;20024;-75
2021/08/18 10:25:44;;;;;;;20.77;6.38;;;;;;;38.61;23.86;97039.97;5091484;28;20052;-75
2021/08/18 10:28:10;;;;;;;11.93;6.00;;;;;;;37.50;25.57;97031.75;5068259;28;20105;-75
2021/08/18 10:31:07;;;;;;;9.38;5.90;;;;;;;38.90;24.08;97041.00;5087269;28;20475;-75
2021/08/18 10:33:53;;;;;;;8.25;5.90;;;;;;;40.28;22.47;97030.41;5041015;28;20098;-75
2021/08/18 10:36:41;;;;;;;26.27;7.45;;;;;;;41.75;21.26;97026.47;5071551;28;20031;-75
2021/08/18 10:39:19;;;;;;;12.90;6.50;;;;;;;40.56;22.73;97029.56;5062879;28;20043;-75
2021/08/18 10:42:14;;;;;;;9.30;5.70;;;;;;;39.88;22.80;97014.81;5091652;28;20085;-75
2021/08/18 10:44:41;;;;;;;8.73;5.63;;;;;;;38.27;24.29;97017.41;5058564;28;20106;-75
2021/08/18 10:47:28;;;;;;;17.05;6.40;;;;;;;38.60;23.83;97015.09;5074015;28;20067;-75
2021/08/18 10:49:56;;;;;;;12.02;5.78;;;;;;;38.64;23.92;97007.81;5091721;28;20548;-75
2021/08/18 10:52:28;;;;;;;11.55;6.18;;;;;;;38.26;24.40;97006.53;5071225;28;20020;-74
2021/08/18 10:55:14;;;;;;;14.48;6.57;;;;;;;38.14;24.90;97003.19;5089595;28;20051;-74
2021/08/18 10:57:40;;;;;;;11.82;6.32;;;;;;;37.53;25.68;97000.50;5091298;28;20020;-75
2021/08/18 11:00:10;;;;;;;12.77;6.28;;;;;;;36.87;26.42;96994.75;5071882;28;20125;-74
2021/08/18 11:02:46;;;;;;;7.25;6.00;;;;;;;36.64;25.94;96988.84;5072365;28;20033;-75
2021/08/18 11:05:12;;;;;;;9.43;6.00;;;;;;;37.03;25.72;96992.03;5070984;28;20117;-75
2021/08/18 11:08:01;;;;;;;12.32;6.00;;;;;;;38.57;24.73;96991.34;5071316;28;20025;-75
2021/08/18 11:10:27;;;;;;;8.25;5.50;;;;;;;40.51;22.49;96987.53;5061328;28;20045;-75
2021/08/18 11:12:54;;;;;;;10.85;6.50;;;;;;;42.08;20.66;96984.00;5087805;28;20539;-76
2021/08/18 11:15:20;;;;;;;9.18;5.95;;;;;;;43.07;19.79;96975.75;5070796;28;20062;-75
2021/08/18 11:17:46;;;;;;;12.00;6.75;;;;;;;42.49;20.59;96971.94;5088025;28;20085;-75
2021/08/18 11:20:16;;;;;;;10.93;6.53;;;;;;;42.16;21.06;96980.47;5092074;28;20028;-75
2021/08/18 11:22:42;;;;;;;10.93;6.93;;;;;;;39.88;22.81;96967.19;5101038;28;20032;-75
2021/08/18 11:25:09;;;;;;;16.02;6.75;;;;;;;38.68;24.27;96956.59;5070530;28;20048;-75
2021/08/18 11:27:34;;;;;;;13.27;6.18;;;;;;;40.34;22.56;96959.13;5075711;28;20020;-75